• Join FlightAware (Why Join?)
  • Login
  • US Flag 
12:25AM EST


 

Airport Tracker/Info


-or-


 

Live Flight TrackerFlight Track Log ✈ UAL4543 ✈ 21-Apr-2013 ✈ KRDU - KEWR

Flight Track Log - Related Links

Times and Time Zones

All times are in EDT time to prevent confusion due to time zone crossing. See the UAL4543 flight status page for this flight to view local times or setup timezone preferences in your user account.

Time Position Orientation Groundspeed Altitude Reporting Facility
EDT Latitude Longitude Course Direction KTS MPH feet Rate Location/Type
03:19PM 35.9008 -78.7767 11° North 187 215 1,700  Level Washington Center
03:20PM 35.9769 -78.7414 21° North 238 274 4,700 2,520 Climbing Washington Center
03:21PM 36.1160 -78.6840 39° Northeast  Level FlightAware Approximate
03:21PM 36.0339 -78.7206 16° North 265 305 7,300  Level Washington Center
03:22PM 36.1999 -78.6548 19° North  Level FlightAware Approximate
03:22PM 36.0864 -78.7019 16° North 275 316 8,600  Level Washington Center
03:23PM 36.2837 -78.6221 15° North  Level FlightAware Approximate
03:23PM 36.1706 -78.6744 15° North 288 331 11,000  Level Washington Center
03:24PM 36.3689 -78.5953 11° North  Level FlightAware Approximate
03:24PM 36.2569 -78.6444 16° North 317 365 12,100  Level Washington Center
03:25PM 36.3642 -78.6097 15° North 348 400 13,900 1,800 Climbing Washington Center
03:26PM 36.4569 -78.5797 15° North 369 425 15,700 1,860 Climbing Washington Center
03:27PM 36.5600 -78.5425 16° North 374 430 17,700 1,740 Climbing Washington Center
03:28PM 36.6611 -78.5047 17° North 374 430 19,200 1,620 Climbing Washington Center
03:29PM 36.7731 -78.4494 22° Northeast 380 437 21,000 1,560 Climbing Washington Center
03:30PM 36.8686 -78.3725 33° Northeast 390 449 22,400 1,200 Climbing Washington Center
03:31PM 36.9578 -78.3028 32° Northeast 404 465 23,500 840 Climbing Washington Center
03:32PM 37.0619 -78.2156 34° Northeast 427 491 24,100 1,080 Climbing Washington Center
03:33PM 37.1747 -78.1228 33° Northeast 442 509 25,700 900 Climbing Washington Center
03:34PM 37.2850 -78.0325 33° Northeast 448 516 26,000 360 Climbing Washington Center
03:35PM 37.3975 -77.9367 34° Northeast 460 529 26,500 480 Climbing Washington Center
03:36PM 37.5119 -77.8408 34° Northeast 475 547 27,000 240 Climbing Washington Center
03:37PM 37.6264 -77.7392 35° Northeast 488 562 27,000  Level Washington Center
03:38PM 37.7428 -77.6350 35° Northeast 504 580 27,100  Climbing Washington Center
03:39PM 37.8614 -77.5278 36° Northeast 511 588 27,000 -60 Descending Washington Center
03:40PM 37.9758 -77.4225 36° Northeast 516 594 27,000  Level Washington Center
03:41PM 38.0856 -77.3250 35° Northeast 496 571 27,000 -60 Level Washington Center
03:42PM 38.1975 -77.2244 35° Northeast 491 565 26,900 -480 Descending Washington Center
03:43PM 38.3233 -77.1717 18° North 472 543 26,100 -900 Descending Washington Center
03:44PM 38.4511 -77.1214 17° North 472 543 25,200 -600 Descending Washington Center
03:45PM 38.5769 -77.0761 16° North 472 543 25,000 -120 Descending Washington Center
03:46PM 38.6842 -77.0092 26° Northeast 450 518 25,000  Level Washington Center
03:47PM 38.7481 -76.8825 57° Northeast 427 491 25,000  Level Washington Center
03:48PM 38.8181 -76.7533 55° Northeast 434 499 25,000  Level Washington Center
03:49PM 38.8881 -76.6264 55° Northeast 434 499 25,000  Level Washington Center
03:50PM 38.9536 -76.5044 55° Northeast 428 493 25,000  Level Washington Center
03:51PM 39.0275 -76.3639 56° Northeast 423 487 25,000  Level Washington Center
03:52PM 39.1133 -76.3111 26° Northeast 402 463 25,000  Level Washington Center
03:53PM 39.1753 -76.4003 312° West 267 307 25,000  Level Washington Center
03:54PM 39.1558 -76.5017 256° West 210 242 25,000  Level Washington Center
03:55PM 39.0928 -76.5811 224° Southwest 231 266 25,000  Level Washington Center
03:56PM 39.0294 -76.6603 224° Southwest 275 316 25,000  Level Washington Center
03:57PM 38.9439 -76.6911 196° South 309 356 25,000  Level Washington Center
03:58PM 38.8864 -76.5836 124° Southeast 266 306 25,000  Level Washington Center
03:59PM 38.9456 -76.4617 58° Northeast 239 275 25,000  Level Washington Center
04:00PM 39.0339 -76.3639 41° Northeast 320 368 25,000  Level Washington Center
04:01PM 39.1200 -76.2658 41° Northeast 357 411 25,000  Level Washington Center
04:02PM 39.2100 -76.1647 41° Northeast 395 455 25,000  Level Washington Center
04:03PM 39.2958 -76.0636 42° Northeast 419 482 25,000 -360 Level Washington Center
04:04PM 39.3797 -75.9647 42° Northeast 412 474 24,300 -1,080 Descending Washington Center
04:05PM 39.4633 -75.8631 43° Northeast 406 467 22,900 -1,500 Descending Washington Center
04:06PM 39.5447 -75.7692 42° Northeast 401 461 21,400 -1,260 Descending Washington Center
04:07PM 39.6219 -75.6778 42° Northeast 389 448 20,400 -780 Descending Washington Center
04:08PM 39.7011 -75.5833 43° Northeast 382 440 19,900 -900 Descending Washington Center
04:09PM 39.7761 -75.4917 43° Northeast 377 434 18,600 -1,320 Descending Washington Center
04:10PM 39.8531 -75.3997 43° Northeast 357 411 17,300 -1,920 Descending Washington Center
04:11PM 39.9236 -75.3128 43° Northeast 340 391 14,800 -2,160 Descending Washington Center
04:12PM 39.9858 -75.2394 42° Northeast 324 373 13,000 -1,800 Descending Washington Center
04:13PM 40.0461 -75.1633 44° Northeast 307 353 11,200 -1,020 Descending Washington Center
04:14PM 40.1042 -75.0925 43° Northeast 296 341 11,000 -360 Descending Washington Center
04:15PM 40.1642 -75.0186 43° Northeast 296 341 10,500 -1,080 Descending Washington Center
04:16PM 40.2667 -74.9000 41° Northeast 268 308 8,100 -960 Descending New York TRACON
04:17PM 40.3000 -74.8333 57° Northeast 228 262 8,000 -360 Descending New York TRACON
04:18PM 40.3500 -74.7833 37° Northeast 223 257 7,500 -840 Descending New York TRACON
04:19PM 40.3833 -74.7333 49° Northeast 213 245 6,400 -720 Descending New York TRACON
04:20PM 40.4500 -74.7167 11° North 217 250 6,100 -180 Descending New York TRACON
04:21PM 40.4833 -74.6500 57° Northeast 225 259 6,100 -60 Level New York TRACON
04:22PM 40.4333 -74.6000 143° Southeast 228 262 6,000 -180 Descending New York TRACON
04:23PM 40.3833 -74.5500 143° Southeast 229 264 5,800 -480 Descending New York TRACON
04:24PM 40.3500 -74.4833 123° Southeast 200 230 5,100 -420 Descending New York TRACON
04:25PM 40.3667 -74.4167 72° East 199 229 5,000 -420 Descending New York TRACON
04:26PM 40.3667 -74.3667 90° East 185 213 4,400 -840 Descending New York TRACON
04:27PM 40.4167 -74.3333 27° Northeast 185 213 3,400 -720 Descending New York TRACON
04:28PM 40.4667 -74.3167 14° North 180 207 3,000 -240 Descending New York TRACON
04:29PM 40.5000 -74.2833 37° Northeast 176 203 3,000  Level New York TRACON
04:30PM 40.5500 -74.2500 27° Northeast 170 196 3,000  Level New York TRACON